createdAt,value
2019-05-05T00:00:52.043Z,13.60
2019-05-05T00:01:52.036Z,14.00
2019-05-05T00:02:52.013Z,13.40
2019-05-05T00:03:52.021Z,14.00
2019-05-05T00:04:54.301Z,13.70
2019-05-05T00:05:52.004Z,14.20
2019-05-05T00:06:52.001Z,13.20
2019-05-05T00:07:54.064Z,13.90
2019-05-05T00:08:51.972Z,14.30
2019-05-05T00:09:51.958Z,14.90
2019-05-05T00:10:54.527Z,13.30
2019-05-05T00:11:51.959Z,13.40
2019-05-05T00:12:51.939Z,13.60
2019-05-05T00:13:52.132Z,13.40
2019-05-05T00:14:51.922Z,13.90
2019-05-05T00:15:51.931Z,12.80
2019-05-05T00:16:51.918Z,13.90
2019-05-05T00:17:51.896Z,14.10
2019-05-05T00:18:54.147Z,14.10
2019-05-05T00:19:51.884Z,13.90
2019-05-05T00:20:51.889Z,15.10
2019-05-05T00:21:52.086Z,14.50
2019-05-05T00:22:52.076Z,14.60
2019-05-05T00:23:51.848Z,14.20
2019-05-05T00:24:51.856Z,14.40
2019-05-05T00:25:51.835Z,14.20
2019-05-05T00:26:51.851Z,14.30
2019-05-05T00:27:51.829Z,13.40
2019-05-05T00:28:51.815Z,12.30
2019-05-05T00:29:51.811Z,13.20
2019-05-05T00:30:51.811Z,13.00
2019-05-05T00:31:51.799Z,14.20
2019-05-05T00:32:51.797Z,13.70
2019-05-05T00:33:51.789Z,14.00
2019-05-05T00:34:51.773Z,13.00
2019-05-05T00:35:51.761Z,13.90
2019-05-05T00:36:51.755Z,13.30
2019-05-05T00:37:51.747Z,12.90
2019-05-05T00:38:51.739Z,13.30
2019-05-05T00:39:51.725Z,13.20
2019-05-05T00:40:51.719Z,13.90
2019-05-05T00:41:51.719Z,13.40
2019-05-05T00:42:51.714Z,14.70
2019-05-05T00:43:51.717Z,14.40
2019-05-05T00:44:51.710Z,13.50
2019-05-05T00:45:51.697Z,14.70
2019-05-05T00:46:51.701Z,13.30
2019-05-05T00:47:51.662Z,14.90
2019-05-05T00:48:51.876Z,14.50
2019-05-05T00:49:51.866Z,14.20
2019-05-05T00:50:51.962Z,14.60
2019-05-05T00:51:51.649Z,15.40
2019-05-05T00:52:51.628Z,15.60
2019-05-05T00:53:51.626Z,16.80
2019-05-05T00:54:51.823Z,16.70
2019-05-05T00:55:51.597Z,16.80
2019-05-05T00:56:51.603Z,16.20
2019-05-05T00:57:51.783Z,15.80
2019-05-05T00:58:51.777Z,14.50
2019-05-05T00:59:51.570Z,14.80
2019-05-05T01:00:51.554Z,14.60
2019-05-05T01:01:51.576Z,14.60
2019-05-05T01:02:51.542Z,14.70
2019-05-05T01:03:51.738Z,14.40
2019-05-05T01:04:51.732Z,15.80
2019-05-05T01:05:51.721Z,15.90
2019-05-05T01:06:51.511Z,15.30
2019-05-05T01:07:51.721Z,17.50
2019-05-05T01:08:51.498Z,16.90
2019-05-05T01:09:51.495Z,17.80
2019-05-05T01:10:51.485Z,17.70
2019-05-05T01:11:51.467Z,17.80
2019-05-05T01:12:51.476Z,17.60
2019-05-05T01:13:51.475Z,17.50
2019-05-05T01:14:51.454Z,18.00
2019-05-05T01:15:51.453Z,17.40
2019-05-05T01:16:51.442Z,18.10
2019-05-05T01:17:51.428Z,17.00
2019-05-05T01:18:51.622Z,17.30
2019-05-05T01:20:01.281Z,16.20
2019-05-05T01:20:51.418Z,16.10
2019-05-05T01:21:51.406Z,17.20
2019-05-05T01:22:51.378Z,17.00
2019-05-05T01:23:51.371Z,16.70
2019-05-05T01:24:51.378Z,16.20
2019-05-05T01:25:51.367Z,17.10
2019-05-05T01:26:51.356Z,17.30
2019-05-05T01:27:51.356Z,15.60
2019-05-05T01:28:51.335Z,17.20
2019-05-05T01:29:51.325Z,16.20
2019-05-05T01:30:51.314Z,15.70
2019-05-05T01:31:51.329Z,15.20
2019-05-05T01:32:51.303Z,13.70
2019-05-05T01:33:51.306Z,13.80
2019-05-05T01:34:51.287Z,13.80
2019-05-05T01:35:51.294Z,13.60
2019-05-05T01:36:51.271Z,11.80
2019-05-05T01:37:51.265Z,12.30
2019-05-05T01:38:51.264Z,11.70
2019-05-05T01:39:51.247Z,12.60
2019-05-05T01:40:51.243Z,11.90
2019-05-05T01:41:51.240Z,10.10
2019-05-05T01:42:51.226Z,9.80
2019-05-05T01:43:51.215Z,10.10
2019-05-05T01:44:51.202Z,9.80
2019-05-05T01:45:51.193Z,9.70
2019-05-05T01:46:51.189Z,10.40
2019-05-05T01:47:51.193Z,10.30
2019-05-05T01:48:51.173Z,9.40
2019-05-05T01:49:51.182Z,10.30
2019-05-05T01:50:51.161Z,9.90
2019-05-05T01:51:51.161Z,10.10
2019-05-05T01:52:51.153Z,10.20
2019-05-05T01:53:51.140Z,10.10
2019-05-05T01:54:51.138Z,10.00
2019-05-05T01:55:51.328Z,10.30
2019-05-05T01:56:52.456Z,10.10
2019-05-05T01:57:51.112Z,10.80
2019-05-05T01:58:51.100Z,10.10
2019-05-05T01:59:51.093Z,10.50
2019-05-05T02:00:51.101Z,9.70
2019-05-05T02:01:51.278Z,9.60
2019-05-05T02:02:51.073Z,10.50
2019-05-05T02:03:51.056Z,9.50
2019-05-05T02:04:51.046Z,10.00
2019-05-05T02:05:51.252Z,8.60
2019-05-05T02:06:51.033Z,9.30
2019-05-05T02:07:51.243Z,9.20
2019-05-05T02:08:51.019Z,8.80
2019-05-05T02:09:51.013Z,8.50
2019-05-05T02:10:51.012Z,8.40
2019-05-05T02:11:51.219Z,8.80
2019-05-05T02:12:50.987Z,7.90
2019-05-05T02:13:50.974Z,7.80
2019-05-05T02:14:50.982Z,8.00
2019-05-05T02:15:50.965Z,7.40
2019-05-05T02:16:50.949Z,7.70
2019-05-05T02:17:51.149Z,7.60
2019-05-05T02:18:50.951Z,7.60
2019-05-05T02:19:50.944Z,7.40
2019-05-05T02:20:50.920Z,7.40
2019-05-05T02:21:50.924Z,9.10
2019-05-05T02:22:50.917Z,8.30
2019-05-05T02:23:50.894Z,9.40
2019-05-05T02:24:50.903Z,9.60
2019-05-05T02:25:51.100Z,10.70
2019-05-05T02:26:51.077Z,10.90
2019-05-05T02:27:51.072Z,12.10
2019-05-05T02:28:50.863Z,11.20
2019-05-05T02:29:50.866Z,12.60
2019-05-05T02:30:50.841Z,11.90
2019-05-05T02:31:50.851Z,11.60
2019-05-05T02:32:50.821Z,11.30
2019-05-05T02:33:50.830Z,11.80
2019-05-05T02:34:50.820Z,11.90
2019-05-05T02:35:50.810Z,12.70
2019-05-05T02:36:50.797Z,11.90
2019-05-05T02:37:50.988Z,12.40
2019-05-05T02:38:50.988Z,13.10
2019-05-05T02:39:58.957Z,12.00
2019-05-05T02:40:50.974Z,13.20
2019-05-05T02:41:50.762Z,13.50
2019-05-05T02:42:50.758Z,13.10
2019-05-05T02:43:50.751Z,12.60
2019-05-05T02:44:50.743Z,12.90
2019-05-05T02:45:50.943Z,12.70
2019-05-05T02:46:50.715Z,14.30
2019-05-05T02:47:50.708Z,13.80
2019-05-05T02:48:50.708Z,14.60
2019-05-05T02:49:50.907Z,14.50
2019-05-05T02:50:55.956Z,14.40
2019-05-05T02:51:50.876Z,14.00
2019-05-05T02:52:50.874Z,14.30
2019-05-05T02:53:50.674Z,13.10
2019-05-05T02:54:50.643Z,12.60
2019-05-05T02:55:50.649Z,13.20
2019-05-05T02:56:50.633Z,13.40
2019-05-05T02:57:50.836Z,14.90
2019-05-05T02:58:50.637Z,15.30
2019-05-05T02:59:50.618Z,14.60
2019-05-05T03:00:50.595Z,14.10
2019-05-05T03:01:50.685Z,14.40
2019-05-05T03:02:50.578Z,14.30
2019-05-05T03:03:50.572Z,15.40
2019-05-05T03:04:50.567Z,14.80
2019-05-05T03:05:50.566Z,14.60
2019-05-05T03:06:50.547Z,14.30
2019-05-05T03:07:50.555Z,13.80
2019-05-05T03:08:50.531Z,13.20
2019-05-05T03:09:50.523Z,12.50
2019-05-05T03:10:50.514Z,13.00
2019-05-05T03:11:50.521Z,12.40
2019-05-05T03:12:50.498Z,12.40
2019-05-05T03:13:50.497Z,12.20
2019-05-05T03:14:50.484Z,12.50
2019-05-05T03:15:50.481Z,12.80
2019-05-05T03:16:50.670Z,15.10
2019-05-05T03:17:50.482Z,12.10
2019-05-05T03:18:50.445Z,13.30
2019-05-05T03:19:50.472Z,12.80
2019-05-05T03:21:01.666Z,12.70
2019-05-05T03:21:50.435Z,13.10
2019-05-05T03:22:50.426Z,13.40
2019-05-05T03:23:50.450Z,13.30
2019-05-05T03:24:50.611Z,14.10
2019-05-05T03:25:50.411Z,13.10
2019-05-05T03:26:50.591Z,13.50
2019-05-05T03:27:50.378Z,13.20
2019-05-05T03:28:50.386Z,12.70
2019-05-05T03:29:50.359Z,13.10
2019-05-05T03:30:50.349Z,13.30
2019-05-05T03:31:50.343Z,12.20
2019-05-05T03:32:50.557Z,12.70
2019-05-05T03:33:50.356Z,13.20
2019-05-05T03:34:50.331Z,12.40
2019-05-05T03:35:50.325Z,13.10
2019-05-05T03:36:50.320Z,13.00
2019-05-05T03:37:50.505Z,12.40
2019-05-05T03:38:50.309Z,12.30
2019-05-05T03:39:50.289Z,11.60
2019-05-05T03:40:50.281Z,11.60
2019-05-05T03:41:50.287Z,12.30
2019-05-05T03:42:50.263Z,12.80
2019-05-05T03:43:50.452Z,11.00
2019-05-05T03:44:50.236Z,11.70
2019-05-05T03:45:50.229Z,11.70
2019-05-05T03:46:50.219Z,11.80
2019-05-05T03:47:50.424Z,11.50
2019-05-05T03:48:50.220Z,10.50
2019-05-05T03:49:50.211Z,10.30
2019-05-05T03:50:50.215Z,10.30
2019-05-05T03:51:50.185Z,10.50
2019-05-05T03:52:50.184Z,10.10
2019-05-05T03:53:50.164Z,9.80
2019-05-05T03:54:50.386Z,10.10
2019-05-05T03:55:50.352Z,11.50
2019-05-05T03:56:50.163Z,10.80
2019-05-05T03:57:50.151Z,10.20
2019-05-05T03:58:50.131Z,11.00
2019-05-05T03:59:50.325Z,11.20
2019-05-05T04:00:50.110Z,11.20
2019-05-05T04:01:50.111Z,12.00
2019-05-05T04:02:50.103Z,11.90
2019-05-05T04:03:50.291Z,11.00
2019-05-05T04:04:50.106Z,11.00
2019-05-05T04:05:50.084Z,10.50
2019-05-05T04:06:50.068Z,11.40
2019-05-05T04:07:50.077Z,10.80
2019-05-05T04:08:50.056Z,10.50
2019-05-05T04:09:50.326Z,10.70
2019-05-05T04:10:50.033Z,10.00
2019-05-05T04:11:50.032Z,10.80
2019-05-05T04:12:50.023Z,9.80
2019-05-05T04:13:50.014Z,9.90
2019-05-05T04:14:49.998Z,9.80
2019-05-05T04:15:50.204Z,9.80
2019-05-05T04:16:49.999Z,10.60
2019-05-05T04:17:49.980Z,9.60
2019-05-05T04:18:49.980Z,10.40
2019-05-05T04:19:49.966Z,9.40
2019-05-05T04:20:50.281Z,10.70
2019-05-05T04:21:49.965Z,9.00
2019-05-05T04:22:49.953Z,9.80
2019-05-05T04:23:49.944Z,10.30
2019-05-05T04:24:49.926Z,9.60
2019-05-05T04:25:49.916Z,9.90
2019-05-05T04:26:49.915Z,10.20
2019-05-05T04:27:49.900Z,11.20
2019-05-05T04:28:49.886Z,9.80
2019-05-05T04:29:49.888Z,9.60
2019-05-05T04:30:49.878Z,9.80
2019-05-05T04:31:49.876Z,9.50
2019-05-05T04:32:49.863Z,9.60
2019-05-05T04:33:50.058Z,9.40
2019-05-05T04:34:49.848Z,8.40
2019-05-05T04:35:49.851Z,10.00
2019-05-05T04:36:49.844Z,9.80
2019-05-05T04:37:49.840Z,9.70
2019-05-05T04:38:49.819Z,9.80
2019-05-05T04:39:49.811Z,9.30
2019-05-05T04:40:49.793Z,9.30
2019-05-05T04:41:49.789Z,9.40
2019-05-05T04:42:49.795Z,10.60
2019-05-05T04:43:49.774Z,9.30
2019-05-05T04:44:49.780Z,9.90
2019-05-05T04:45:49.770Z,9.80
2019-05-05T04:46:49.757Z,10.10
2019-05-05T04:47:49.775Z,10.00
2019-05-05T04:48:49.749Z,10.50
2019-05-05T04:49:49.732Z,9.50
2019-05-05T04:50:49.736Z,9.90
2019-05-05T04:51:50.537Z,9.80
2019-05-05T04:52:49.726Z,9.90
2019-05-05T04:53:49.703Z,9.50
2019-05-05T04:54:49.690Z,10.00
2019-05-05T04:55:49.687Z,10.10
2019-05-05T04:56:49.692Z,10.10
2019-05-05T04:57:49.671Z,9.90
2019-05-05T04:58:49.660Z,10.60
2019-05-05T04:59:49.666Z,10.10
2019-05-05T05:00:49.854Z,9.60
2019-05-05T05:01:49.641Z,10.20
2019-05-05T05:02:49.631Z,9.10
2019-05-05T05:03:49.637Z,10.30
2019-05-05T05:04:49.626Z,10.10
2019-05-05T05:05:49.631Z,9.80
2019-05-05T05:06:49.606Z,9.60
2019-05-05T05:07:49.596Z,9.90
2019-05-05T05:08:49.612Z,9.70
2019-05-05T05:09:49.597Z,10.00
2019-05-05T05:10:49.579Z,9.30
2019-05-05T05:11:49.586Z,9.80
2019-05-05T05:12:49.559Z,10.40
2019-05-05T05:13:49.553Z,10.00
2019-05-05T05:14:49.566Z,10.40
2019-05-05T05:15:49.539Z,9.40
2019-05-05T05:16:49.556Z,11.30
2019-05-05T05:17:49.533Z,9.90
2019-05-05T05:18:49.731Z,9.90
2019-05-05T05:19:49.526Z,9.90
2019-05-05T05:20:49.704Z,9.80
2019-05-05T05:21:59.380Z,10.80
2019-05-05T05:22:49.498Z,11.50
2019-05-05T05:23:49.683Z,10.60
2019-05-05T05:24:49.483Z,10.30
2019-05-05T05:25:49.477Z,9.50
2019-05-05T05:26:49.472Z,9.30
2019-05-05T05:27:49.450Z,9.50
2019-05-05T05:28:49.453Z,11.20
2019-05-05T05:29:49.438Z,11.90
2019-05-05T05:30:49.429Z,10.30
2019-05-05T05:31:49.634Z,11.10
2019-05-05T05:32:49.413Z,10.50
2019-05-05T05:33:49.417Z,11.10
2019-05-05T05:34:49.406Z,10.50
2019-05-05T05:35:49.392Z,12.20
2019-05-05T05:36:49.391Z,11.10
2019-05-05T05:37:49.383Z,11.40
2019-05-05T05:38:49.390Z,10.90
2019-05-05T05:39:49.379Z,11.40
2019-05-05T05:40:49.376Z,10.60
2019-05-05T05:41:49.355Z,11.60
2019-05-05T05:42:49.341Z,11.30
2019-05-05T05:43:49.352Z,11.50
2019-05-05T05:44:49.331Z,12.10
2019-05-05T05:45:49.321Z,10.80
2019-05-05T05:46:49.322Z,11.30
2019-05-05T05:47:49.324Z,11.70
2019-05-05T05:48:49.296Z,10.70
2019-05-05T05:49:49.298Z,11.30
2019-05-05T05:50:49.487Z,11.20
2019-05-05T05:51:49.287Z,11.90
2019-05-05T05:52:49.271Z,11.50
2019-05-05T05:53:49.264Z,12.30
2019-05-05T05:54:49.275Z,12.70
2019-05-05T05:55:49.264Z,11.50
2019-05-05T05:56:49.446Z,12.50
2019-05-05T05:57:49.248Z,11.60
2019-05-05T05:58:49.233Z,13.60
2019-05-05T05:59:49.243Z,11.60
2019-05-05T06:00:49.212Z,11.70
2019-05-05T06:01:49.227Z,11.10
2019-05-05T06:02:49.214Z,12.10
2019-05-05T06:03:49.197Z,11.50
2019-05-05T06:04:49.196Z,11.20
2019-05-05T06:05:49.193Z,12.70
2019-05-05T06:06:49.179Z,12.80
2019-05-05T06:07:49.194Z,12.80
2019-05-05T06:08:49.166Z,12.50
2019-05-05T06:09:49.152Z,12.80
2019-05-05T06:10:49.351Z,13.10
2019-05-05T06:11:49.350Z,12.40
2019-05-05T06:12:49.136Z,13.50
2019-05-05T06:13:49.337Z,12.30
2019-05-05T06:14:49.122Z,12.40
2019-05-05T06:15:49.316Z,12.70
2019-05-05T06:16:49.097Z,12.10
2019-05-05T06:17:49.111Z,12.20
2019-05-05T06:18:49.093Z,13.00
2019-05-05T06:19:49.084Z,13.90
2019-05-05T06:20:49.074Z,13.20
2019-05-05T06:21:49.280Z,14.40
2019-05-05T06:22:49.069Z,13.40
2019-05-05T06:23:49.064Z,13.00
2019-05-05T06:24:49.045Z,12.70
2019-05-05T06:25:49.034Z,12.90
2019-05-05T06:26:49.228Z,13.10
2019-05-05T06:27:49.032Z,16.60
2019-05-05T06:28:49.239Z,13.80
2019-05-05T06:29:49.012Z,13.90
2019-05-05T06:30:49.023Z,17.80
2019-05-05T06:31:49.212Z,14.70
2019-05-05T06:32:48.986Z,16.20
2019-05-05T06:33:48.987Z,13.90
2019-05-05T06:34:48.976Z,17.30
2019-05-05T06:35:48.969Z,16.90
2019-05-05T06:36:48.985Z,13.10
2019-05-05T06:37:48.963Z,14.00
2019-05-05T06:38:48.954Z,13.40
2019-05-05T06:39:48.933Z,12.80
2019-05-05T06:40:48.950Z,12.70
2019-05-05T06:41:48.929Z,13.90
2019-05-05T06:42:48.925Z,15.40
2019-05-05T06:43:48.913Z,15.10
2019-05-05T06:44:48.896Z,17.20
2019-05-05T06:45:49.092Z,14.60
2019-05-05T06:46:49.109Z,15.60
2019-05-05T06:47:48.872Z,14.30
2019-05-05T06:48:48.886Z,16.20
2019-05-05T06:49:48.861Z,17.70
2019-05-05T06:50:48.849Z,18.10
2019-05-05T06:51:48.843Z,19.10
2019-05-05T06:52:48.840Z,17.30
2019-05-05T06:53:48.832Z,14.80
2019-05-05T06:54:48.827Z,17.80
2019-05-05T06:55:50.474Z,16.10
2019-05-05T06:56:48.820Z,15.40
2019-05-05T06:57:48.810Z,15.40
2019-05-05T06:58:49.003Z,18.50
2019-05-05T06:59:48.790Z,15.70
2019-05-05T07:00:48.785Z,17.60
2019-05-05T07:01:48.766Z,18.60
2019-05-05T07:02:48.788Z,16.70
2019-05-05T07:03:48.752Z,19.20
2019-05-05T07:04:48.752Z,18.30
2019-05-05T07:05:48.760Z,20.00
2019-05-05T07:06:54.154Z,17.40
2019-05-05T07:07:48.731Z,20.90
2019-05-05T07:08:48.726Z,21.10
2019-05-05T07:09:48.927Z,16.00
2019-05-05T07:10:48.723Z,20.20
2019-05-05T07:11:48.701Z,19.60
2019-05-05T07:12:48.704Z,18.50
2019-05-05T07:13:48.887Z,24.90
2019-05-05T07:14:48.673Z,20.20
2019-05-05T07:15:48.679Z,21.80
2019-05-05T07:16:48.661Z,26.80
2019-05-05T07:17:48.655Z,26.80
2019-05-05T07:18:48.646Z,26.40
2019-05-05T07:19:48.650Z,27.20
2019-05-05T07:20:48.638Z,29.70
2019-05-05T07:21:48.629Z,38.70
2019-05-05T07:22:58.687Z,39.50
2019-05-05T07:23:48.610Z,41.20
2019-05-05T07:24:48.618Z,37.80
2019-05-05T07:25:48.629Z,38.60
2019-05-05T07:26:48.588Z,35.30
2019-05-05T07:27:48.592Z,35.60
2019-05-05T07:28:48.575Z,37.60
2019-05-05T07:29:48.577Z,35.00
2019-05-05T07:30:48.588Z,33.10
2019-05-05T07:31:48.549Z,36.00
2019-05-05T07:32:48.544Z,34.60
2019-05-05T07:33:48.540Z,32.30
2019-05-05T07:34:48.540Z,33.50
2019-05-05T07:35:58.648Z,31.30
2019-05-05T07:36:48.515Z,30.60
2019-05-05T07:37:48.511Z,33.10
2019-05-05T07:38:48.509Z,35.60
2019-05-05T07:39:48.486Z,33.90
2019-05-05T07:40:48.494Z,33.70
2019-05-05T07:41:48.478Z,35.80
2019-05-05T07:42:48.476Z,34.80
2019-05-05T07:43:48.463Z,30.30
2019-05-05T07:44:48.452Z,29.30
2019-05-05T07:45:48.454Z,31.90
2019-05-05T07:46:48.441Z,31.50
2019-05-05T07:47:48.447Z,29.70
2019-05-05T07:48:48.432Z,26.10
2019-05-05T07:49:48.418Z,28.60
2019-05-05T07:50:59.766Z,32.70
2019-05-05T07:51:48.643Z,27.00
2019-05-05T07:52:48.395Z,26.80
2019-05-05T07:53:48.412Z,21.10
2019-05-05T07:54:48.382Z,21.70
2019-05-05T07:55:48.375Z,22.50
2019-05-05T07:56:48.381Z,20.40
2019-05-05T07:57:48.362Z,23.90
2019-05-05T07:58:48.359Z,23.80
2019-05-05T07:59:48.361Z,23.90
2019-05-05T08:00:48.350Z,21.70
2019-05-05T08:01:48.336Z,21.90
2019-05-05T08:02:48.333Z,21.50
2019-05-05T08:03:48.317Z,20.30
2019-05-05T08:04:48.535Z,23.80
2019-05-05T08:05:48.308Z,23.50
2019-05-05T08:06:48.303Z,23.60
2019-05-05T08:07:48.493Z,21.70
2019-05-05T08:08:48.292Z,20.10
2019-05-05T08:09:48.487Z,20.60
2019-05-05T08:10:48.275Z,18.30
2019-05-05T08:11:48.287Z,19.30
2019-05-05T08:12:48.264Z,18.00
2019-05-05T08:13:48.262Z,19.20
2019-05-05T08:14:48.244Z,18.60
2019-05-05T08:15:59.038Z,19.90
2019-05-05T08:16:48.224Z,19.00
2019-05-05T08:17:48.232Z,20.80
2019-05-05T08:18:48.227Z,22.70
2019-05-05T08:19:48.206Z,24.20
2019-05-05T08:20:48.231Z,21.50
2019-05-05T08:21:48.219Z,21.80
2019-05-05T08:22:48.196Z,20.70
2019-05-05T08:23:48.177Z,25.40
2019-05-05T08:24:48.175Z,22.90
2019-05-05T08:25:48.188Z,20.90
2019-05-05T08:26:48.221Z,19.50
2019-05-05T08:27:48.161Z,25.70
2019-05-05T08:28:48.156Z,21.70
2019-05-05T08:29:48.342Z,20.30
2019-05-05T08:30:48.149Z,22.50
2019-05-05T08:31:48.331Z,19.10
2019-05-05T08:32:48.326Z,18.20
2019-05-05T08:33:48.146Z,22.40
2019-05-05T08:34:58.119Z,21.00
2019-05-05T08:35:48.105Z,21.70
2019-05-05T08:36:48.102Z,23.20
2019-05-05T08:37:48.095Z,20.10
2019-05-05T08:38:48.292Z,21.80
2019-05-05T08:39:48.092Z,23.70
2019-05-05T08:40:48.277Z,20.70
2019-05-05T08:41:48.095Z,17.40
2019-05-05T08:42:48.067Z,18.40
2019-05-05T08:43:48.053Z,21.50
2019-05-05T08:44:48.062Z,19.80
2019-05-05T08:45:48.054Z,20.60
2019-05-05T08:46:48.047Z,23.00
2019-05-05T08:47:48.044Z,21.60
2019-05-05T08:48:48.246Z,19.80
2019-05-05T08:49:48.050Z,21.20
2019-05-05T08:50:48.227Z,21.10
2019-05-05T08:51:48.009Z,25.20
2019-05-05T08:52:48.017Z,20.60
2019-05-05T08:53:48.546Z,21.60
2019-05-05T08:54:48.002Z,21.90
2019-05-05T08:55:47.984Z,24.20
2019-05-05T08:56:47.993Z,25.40
2019-05-05T08:57:47.983Z,22.90
2019-05-05T08:58:49.777Z,22.80
2019-05-05T08:59:47.960Z,26.90
2019-05-05T09:00:47.956Z,23.70
2019-05-05T09:01:47.947Z,23.60
2019-05-05T09:02:47.962Z,27.30
2019-05-05T09:03:47.952Z,20.90
2019-05-05T09:04:47.928Z,20.90
2019-05-05T09:05:47.955Z,23.00
2019-05-05T09:06:47.917Z,25.40
2019-05-05T09:07:47.913Z,22.30
2019-05-05T09:08:47.902Z,20.90
2019-05-05T09:09:47.907Z,21.10
2019-05-05T09:10:47.906Z,19.80
2019-05-05T09:11:48.101Z,19.30
2019-05-05T09:12:47.874Z,19.30
2019-05-05T09:13:47.876Z,16.00
2019-05-05T09:14:47.879Z,18.40
2019-05-05T09:15:47.890Z,15.60
2019-05-05T09:16:47.864Z,16.50
2019-05-05T09:17:47.861Z,14.80
2019-05-05T09:18:47.848Z,19.00
2019-05-05T09:19:47.851Z,15.40
2019-05-05T09:20:47.824Z,15.80
2019-05-05T09:21:47.822Z,18.20
2019-05-05T09:22:47.814Z,16.20
2019-05-05T09:23:58.979Z,18.70
2019-05-05T09:24:47.804Z,16.30
2019-05-05T09:25:47.794Z,14.30
2019-05-05T09:26:47.795Z,12.70
2019-05-05T09:27:47.785Z,17.20
2019-05-05T09:28:47.777Z,15.40
2019-05-05T09:29:47.783Z,18.70
2019-05-05T09:30:47.761Z,14.50
2019-05-05T09:31:47.757Z,20.10
2019-05-05T09:32:47.753Z,16.60
2019-05-05T09:33:47.952Z,15.90
2019-05-05T09:34:47.737Z,14.10
2019-05-05T09:35:47.743Z,20.60
2019-05-05T09:36:47.769Z,14.00
2019-05-05T09:37:47.739Z,12.50
2019-05-05T09:38:47.736Z,13.70
2019-05-05T09:39:47.704Z,14.60
2019-05-05T09:40:47.701Z,19.50
2019-05-05T09:41:47.709Z,15.80
2019-05-05T09:42:47.689Z,13.80
2019-05-05T09:43:47.692Z,14.80
2019-05-05T09:44:47.720Z,13.40
2019-05-05T09:45:47.747Z,15.70
2019-05-05T09:46:47.665Z,13.30
2019-05-05T09:47:47.656Z,11.40
2019-05-05T09:48:47.655Z,12.60
2019-05-05T09:49:47.645Z,14.50
2019-05-05T09:50:47.651Z,14.30
2019-05-05T09:51:47.652Z,16.60
2019-05-05T09:52:47.643Z,13.50
2019-05-05T09:53:47.630Z,18.10
2019-05-05T09:54:47.817Z,16.10
2019-05-05T09:55:47.835Z,17.60
2019-05-05T09:56:47.611Z,17.70
2019-05-05T09:57:47.594Z,16.30
2019-05-05T09:58:47.593Z,18.00
2019-05-05T09:59:47.581Z,19.50
2019-05-05T10:00:47.573Z,16.90
2019-05-05T10:01:47.790Z,15.50
2019-05-05T10:02:47.572Z,14.20
2019-05-05T10:03:47.596Z,13.80
2019-05-05T10:04:47.569Z,16.80
2019-05-05T10:05:47.558Z,14.70
2019-05-05T10:06:47.983Z,17.20
2019-05-05T10:07:47.538Z,18.90
2019-05-05T10:08:47.535Z,20.00
2019-05-05T10:09:47.529Z,16.50
2019-05-05T10:10:47.525Z,21.80
2019-05-05T10:11:47.506Z,18.80
2019-05-05T10:12:47.503Z,21.50
2019-05-05T10:13:47.492Z,16.60
2019-05-05T10:14:47.488Z,22.70
2019-05-05T10:15:47.476Z,17.30
2019-05-05T10:16:47.490Z,18.60
2019-05-05T10:17:47.479Z,18.60
2019-05-05T10:18:47.457Z,16.20
2019-05-05T10:19:47.659Z,22.90
2019-05-05T10:20:47.655Z,15.00
2019-05-05T10:21:47.670Z,20.30
2019-05-05T10:22:47.434Z,18.90
2019-05-05T10:23:47.428Z,17.20
2019-05-05T10:24:47.439Z,17.40
2019-05-05T10:25:47.428Z,19.70
2019-05-05T10:26:47.405Z,17.40
2019-05-05T10:27:47.747Z,15.80
2019-05-05T10:28:47.408Z,22.40
2019-05-05T10:29:47.385Z,15.60
2019-05-05T10:30:47.379Z,19.90
2019-05-05T10:31:47.384Z,13.70
2019-05-05T10:32:47.577Z,14.80
2019-05-05T10:33:47.375Z,18.20
2019-05-05T10:34:47.352Z,16.20
2019-05-05T10:35:47.350Z,18.00
2019-05-05T10:36:47.361Z,15.70
2019-05-05T10:37:47.356Z,14.30
2019-05-05T10:38:47.337Z,15.80
2019-05-05T10:39:47.324Z,18.50
2019-05-05T10:40:48.386Z,14.90
2019-05-05T10:41:47.528Z,16.20
2019-05-05T10:42:47.529Z,15.30
2019-05-05T10:43:47.302Z,14.70
2019-05-05T10:44:47.295Z,18.60
2019-05-05T10:45:47.295Z,15.00
2019-05-05T10:46:47.284Z,18.30
2019-05-05T10:47:47.476Z,14.30
2019-05-05T10:48:47.268Z,14.20
2019-05-05T10:49:47.483Z,14.10
2019-05-05T10:50:47.465Z,14.60
2019-05-05T10:51:47.249Z,12.90
2019-05-05T10:52:47.240Z,13.90
2019-05-05T10:53:47.235Z,9.70
2019-05-05T10:54:47.258Z,14.00
2019-05-05T10:55:47.233Z,10.50
2019-05-05T10:56:47.217Z,10.50
2019-05-05T10:57:47.217Z,11.50
2019-05-05T10:58:47.219Z,14.80
2019-05-05T10:59:47.206Z,13.50
2019-05-05T11:00:47.201Z,16.50
2019-05-05T11:01:47.199Z,11.40
2019-05-05T11:02:47.188Z,11.70
2019-05-05T11:03:47.176Z,14.80
2019-05-05T11:04:47.179Z,10.40
2019-05-05T11:05:47.166Z,12.50
2019-05-05T11:06:47.163Z,15.10
2019-05-05T11:07:47.153Z,15.30
2019-05-05T11:08:47.150Z,12.70
2019-05-05T11:09:47.144Z,11.60
2019-05-05T11:10:47.141Z,15.60
2019-05-05T11:11:47.139Z,14.90
2019-05-05T11:12:47.129Z,11.00
2019-05-05T11:13:47.122Z,14.20
2019-05-05T11:14:47.126Z,11.80
2019-05-05T11:15:47.112Z,10.80
2019-05-05T11:16:47.101Z,12.30
2019-05-05T11:17:47.102Z,12.70
2019-05-05T11:18:47.094Z,12.90
2019-05-05T11:19:50.149Z,11.20
2019-05-05T11:20:47.098Z,12.90
2019-05-05T11:21:47.084Z,8.50
2019-05-05T11:22:47.068Z,7.80
2019-05-05T11:23:47.071Z,8.20
2019-05-05T11:24:57.344Z,9.20
2019-05-05T11:25:47.050Z,10.30
2019-05-05T11:26:47.053Z,11.60
2019-05-05T11:27:47.043Z,9.60
2019-05-05T11:28:47.028Z,9.00
2019-05-05T11:29:47.034Z,9.00
2019-05-05T11:30:47.026Z,9.30
2019-05-05T11:31:47.019Z,11.60
2019-05-05T11:32:47.214Z,11.70
2019-05-05T11:33:46.999Z,6.30
2019-05-05T11:34:47.000Z,12.80
2019-05-05T11:35:47.185Z,11.40
2019-05-05T11:36:46.975Z,10.70
2019-05-05T11:37:46.978Z,11.10
2019-05-05T11:38:46.968Z,9.70
2019-05-05T11:39:46.975Z,11.40
2019-05-05T11:40:46.960Z,10.30
2019-05-05T11:41:46.972Z,12.70
2019-05-05T11:42:46.954Z,11.60
2019-05-05T11:43:46.939Z,13.60
2019-05-05T11:44:47.570Z,10.40
2019-05-05T11:45:46.936Z,10.70
2019-05-05T11:46:46.931Z,9.90
2019-05-05T11:47:46.918Z,8.50
2019-05-05T11:48:46.907Z,10.80
2019-05-05T11:49:47.121Z,8.60
2019-05-05T11:50:47.095Z,8.50
2019-05-05T11:51:46.893Z,7.40
2019-05-05T11:52:46.904Z,6.70
2019-05-05T11:53:47.095Z,7.10
2019-05-05T11:54:46.875Z,8.20
2019-05-05T11:55:46.869Z,7.70
2019-05-05T11:56:46.890Z,8.10
2019-05-05T11:57:46.863Z,8.50
2019-05-05T11:58:46.854Z,8.50
2019-05-05T11:59:46.849Z,10.90
2019-05-05T12:00:46.861Z,8.20
2019-05-05T12:01:46.838Z,12.10
2019-05-05T12:02:46.845Z,8.50
2019-05-05T12:03:46.818Z,9.60
2019-05-05T12:04:46.817Z,10.10
2019-05-05T12:05:46.825Z,12.70
2019-05-05T12:06:46.805Z,9.10
2019-05-05T12:07:46.809Z,12.60
2019-05-05T12:08:46.809Z,11.60
2019-05-05T12:09:46.786Z,14.10
2019-05-05T12:10:46.793Z,12.70
2019-05-05T12:11:46.775Z,12.00
2019-05-05T12:12:46.974Z,11.70
2019-05-05T12:13:46.777Z,9.60
2019-05-05T12:14:46.975Z,14.10
2019-05-05T12:15:46.764Z,14.90
2019-05-05T12:16:46.766Z,11.10
2019-05-05T12:17:46.958Z,11.90
2019-05-05T12:18:46.735Z,11.40
2019-05-05T12:19:48.499Z,13.40
2019-05-05T12:20:46.734Z,9.00
2019-05-05T12:21:46.740Z,14.70
2019-05-05T12:22:46.711Z,11.30
2019-05-05T12:23:46.725Z,14.80
2019-05-05T12:24:46.711Z,123.20
2019-05-05T12:25:46.715Z,20.80
2019-05-05T12:26:46.699Z,15.10
2019-05-05T12:27:46.690Z,13.40
2019-05-05T12:28:46.692Z,10.10
2019-05-05T12:29:46.673Z,11.60
2019-05-05T12:30:46.671Z,11.60
2019-05-05T12:31:46.684Z,12.70
2019-05-05T12:32:46.654Z,15.20
2019-05-05T12:33:46.650Z,16.10
2019-05-05T12:34:46.644Z,15.20
2019-05-05T12:35:46.656Z,17.30
2019-05-05T12:36:46.642Z,16.80
2019-05-05T12:37:46.649Z,17.50
2019-05-05T12:38:46.634Z,16.80
2019-05-05T12:39:46.610Z,18.30
2019-05-05T12:40:46.619Z,16.00
2019-05-05T12:41:46.596Z,18.30
2019-05-05T12:42:46.589Z,19.70
2019-05-05T12:43:46.594Z,20.40
2019-05-05T12:44:46.595Z,18.20
2019-05-05T12:45:46.575Z,17.40
2019-05-05T12:46:46.571Z,20.10
2019-05-05T12:47:46.579Z,17.50
2019-05-05T12:48:46.559Z,15.90
2019-05-05T12:49:46.558Z,17.40
2019-05-05T12:50:46.557Z,18.00
2019-05-05T12:51:46.536Z,16.40
2019-05-05T12:52:46.548Z,14.60
2019-05-05T12:53:46.541Z,12.90
2019-05-05T12:54:46.533Z,14.70
2019-05-05T12:55:46.539Z,14.90
2019-05-05T12:56:46.532Z,15.50